createdAt,value
2022-10-08T00:00:51.657Z,27.83
2022-10-08T00:03:19.917Z,26.83
2022-10-08T00:05:57.133Z,29.95
2022-10-08T00:08:24.717Z,27.05
2022-10-08T00:10:56.060Z,30.42
2022-10-08T00:13:23.787Z,28.40
2022-10-08T00:15:50.927Z,29.52
2022-10-08T00:18:17.746Z,27.67
2022-10-08T00:20:44.402Z,28.33
2022-10-08T00:23:11.203Z,27.15
2022-10-08T00:25:42.411Z,30.75
2022-10-08T00:28:10.418Z,27.77
2022-10-08T00:30:41.222Z,30.40
2022-10-08T00:33:08.745Z,28.95
2022-10-08T00:35:39.641Z,28.65
2022-10-08T00:38:07.402Z,27.30
2022-10-08T00:40:44.322Z,29.25
2022-10-08T00:43:16.440Z,26.33
2022-10-08T00:45:47.266Z,26.23
2022-10-08T00:48:25.646Z,24.42
2022-10-08T00:50:52.410Z,27.42
2022-10-08T00:53:19.039Z,26.50
2022-10-08T00:55:45.522Z,26.45
2022-10-08T00:58:18.887Z,27.23
2022-10-08T01:00:45.548Z,26.02
2022-10-08T01:03:12.077Z,25.92
2022-10-08T01:05:50.082Z,24.90
2022-10-08T01:08:33.898Z,25.35
2022-10-08T01:11:08.868Z,25.43
2022-10-08T01:13:49.178Z,26.98
2022-10-08T01:16:36.153Z,26.90
2022-10-08T01:19:54.738Z,26.50
2022-10-08T01:22:40.882Z,23.45
2022-10-08T01:25:58.022Z,24.58
2022-10-08T01:28:31.500Z,23.92
2022-10-08T01:31:05.491Z,24.45
2022-10-08T01:33:45.506Z,24.40
2022-10-08T01:36:14.957Z,22.73
2022-10-08T01:38:47.177Z,24.90
2022-10-08T01:41:16.884Z,23.65
2022-10-08T01:43:49.310Z,25.38
2022-10-08T01:46:25.217Z,22.73
2022-10-08T01:48:56.066Z,23.38
2022-10-08T01:51:34.385Z,23.63
2022-10-08T01:54:05.265Z,23.63
2022-10-08T01:56:34.208Z,22.83
2022-10-08T01:59:10.049Z,25.27
2022-10-08T02:01:49.703Z,24.17
2022-10-08T02:04:37.617Z,21.85
2022-10-08T02:07:20.149Z,21.30
2022-10-08T02:09:51.360Z,23.45
2022-10-08T02:12:19.391Z,25.20
2022-10-08T02:14:52.935Z,23.45
2022-10-08T02:17:41.207Z,24.55
2022-10-08T02:20:20.689Z,22.77
2022-10-08T02:23:08.993Z,24.83
2022-10-08T02:25:49.285Z,24.30
2022-10-08T02:28:44.131Z,22.58
2022-10-08T02:31:18.435Z,24.48
2022-10-08T02:34:06.926Z,22.17
2022-10-08T02:36:41.254Z,22.50
2022-10-08T02:41:39.214Z,23.10
2022-10-08T02:44:15.616Z,22.70
2022-10-08T02:46:46.317Z,23.00
2022-10-08T02:49:20.333Z,23.30
2022-10-08T02:51:49.775Z,23.90
2022-10-08T02:54:20.084Z,23.98
2022-10-08T02:56:57.168Z,25.27
2022-10-08T02:59:25.162Z,25.63
2022-10-08T03:02:02.698Z,25.65
2022-10-08T03:04:44.075Z,24.75
2022-10-08T03:07:12.417Z,26.55
2022-10-08T03:09:43.031Z,27.13
2022-10-08T03:12:09.572Z,27.65
2022-10-08T03:14:40.102Z,28.73
2022-10-08T03:17:08.837Z,30.02
2022-10-08T03:19:35.584Z,33.40
2022-10-08T03:22:05.343Z,36.42
2022-10-08T03:24:31.687Z,38.90
2022-10-08T03:26:58.069Z,38.95
2022-10-08T03:29:25.754Z,45.97
2022-10-08T03:31:55.104Z,43.38
2022-10-08T03:34:21.591Z,46.67
2022-10-08T03:36:50.471Z,52.42
2022-10-08T03:39:16.969Z,46.13
2022-10-08T03:41:43.365Z,47.65
2022-10-08T03:44:12.283Z,38.97
2022-10-08T03:46:38.889Z,38.03
2022-10-08T03:49:05.372Z,39.50
2022-10-08T03:51:34.943Z,42.33
2022-10-08T03:54:01.348Z,44.40
2022-10-08T03:56:28.911Z,45.03
2022-10-08T03:58:58.643Z,50.75
2022-10-08T04:01:27.198Z,60.45
2022-10-08T04:03:54.526Z,62.22
2022-10-08T04:06:21.171Z,67.75
2022-10-08T04:08:47.623Z,64.53
2022-10-08T04:11:17.680Z,60.38
2022-10-08T04:13:44.705Z,62.78
2022-10-08T04:16:16.343Z,61.22
2022-10-08T04:18:44.022Z,64.18
2022-10-08T04:21:13.488Z,62.33
2022-10-08T04:23:41.703Z,60.17
2022-10-08T04:26:09.693Z,57.72
2022-10-08T04:28:41.341Z,57.75
2022-10-08T04:31:12.207Z,55.45
2022-10-08T04:33:38.999Z,56.17
2022-10-08T04:36:18.303Z,54.20
2022-10-08T04:38:45.703Z,56.85
2022-10-08T04:41:14.817Z,62.08
2022-10-08T04:43:42.943Z,58.08
2022-10-08T04:46:11.670Z,57.38
2022-10-08T04:48:39.058Z,54.80
2022-10-08T04:51:10.556Z,56.30
2022-10-08T04:53:37.549Z,59.72
2022-10-08T04:56:17.016Z,54.90
2022-10-08T04:58:44.475Z,56.78
2022-10-08T05:01:14.175Z,54.85
2022-10-08T05:03:48.497Z,59.10
2022-10-08T05:06:16.806Z,55.40
2022-10-08T05:08:44.513Z,55.10
2022-10-08T05:11:13.808Z,54.35
2022-10-08T05:13:40.466Z,52.45
2022-10-08T05:16:12.105Z,53.40
2022-10-08T05:18:39.829Z,54.85
2022-10-08T05:21:11.835Z,54.17
2022-10-08T05:23:38.996Z,55.15
2022-10-08T05:26:17.324Z,52.83
2022-10-08T05:28:46.945Z,49.95
2022-10-08T05:31:17.248Z,53.22
2022-10-08T05:33:44.292Z,53.15
2022-10-08T05:36:20.405Z,51.10
2022-10-08T05:38:47.040Z,51.22
2022-10-08T05:41:15.563Z,50.72
2022-10-08T05:43:41.919Z,48.20
2022-10-08T05:46:09.158Z,52.55
2022-10-08T05:48:36.100Z,51.10
2022-10-08T05:51:06.776Z,53.17
2022-10-08T05:53:38.331Z,49.42
2022-10-08T05:56:09.976Z,51.13
2022-10-08T05:58:37.794Z,52.08
2022-10-08T06:01:26.468Z,51.03
2022-10-08T06:03:54.979Z,52.00
2022-10-08T06:06:27.794Z,50.65
2022-10-08T06:08:56.022Z,54.03
2022-10-08T06:11:22.408Z,50.63
2022-10-08T06:13:53.284Z,53.45
2022-10-08T06:16:20.065Z,54.25
2022-10-08T06:18:46.578Z,55.65
2022-10-08T06:21:16.545Z,55.90
2022-10-08T06:23:51.351Z,55.65
2022-10-08T06:26:18.638Z,54.00
2022-10-08T06:28:45.872Z,53.92
2022-10-08T06:31:13.619Z,53.17
2022-10-08T06:33:40.410Z,57.45
2022-10-08T06:36:15.984Z,54.50
2022-10-08T06:38:42.684Z,56.10
2022-10-08T06:41:09.064Z,61.97
2022-10-08T06:43:35.804Z,58.72
2022-10-08T06:46:06.329Z,56.67
2022-10-08T06:51:53.533Z,60.90
2022-10-08T06:54:19.950Z,59.05
2022-10-08T06:56:46.394Z,59.88
2022-10-08T06:59:12.844Z,61.03
2022-10-08T07:01:39.421Z,58.72
2022-10-08T07:04:07.027Z,55.53
2022-10-08T07:06:34.055Z,59.38
2022-10-08T07:09:02.125Z,58.38
2022-10-08T07:11:30.080Z,60.13
2022-10-08T07:14:07.031Z,59.40
2022-10-08T07:16:33.630Z,59.15
2022-10-08T07:19:00.223Z,56.42
2022-10-08T07:21:28.384Z,60.67
2022-10-08T07:23:55.441Z,58.35
2022-10-08T07:26:27.383Z,58.45
2022-10-08T07:28:56.940Z,59.40
2022-10-08T07:31:31.597Z,53.78
2022-10-08T07:33:59.549Z,54.53
2022-10-08T07:36:27.131Z,53.97
2022-10-08T07:38:55.203Z,59.75
2022-10-08T07:41:21.872Z,54.53
2022-10-08T07:43:53.625Z,53.35
2022-10-08T07:46:20.595Z,53.65
2022-10-08T07:48:47.133Z,51.40
2022-10-08T07:51:16.194Z,49.50
2022-10-08T07:53:43.542Z,46.95
2022-10-08T07:56:11.643Z,49.38
2022-10-08T07:58:38.926Z,51.28
2022-10-08T08:01:08.000Z,49.85
2022-10-08T08:03:34.936Z,50.35
2022-10-08T08:06:20.400Z,43.85
2022-10-08T08:08:46.873Z,45.22
2022-10-08T08:11:16.123Z,47.47
2022-10-08T08:13:42.994Z,47.75
2022-10-08T08:16:15.513Z,47.03
2022-10-08T08:18:44.349Z,46.83
2022-10-08T08:21:22.856Z,44.30
2022-10-08T08:23:52.410Z,46.88
2022-10-08T08:26:22.127Z,41.63
2022-10-08T08:28:53.570Z,41.00
2022-10-08T08:31:27.608Z,41.60
2022-10-08T08:34:15.997Z,45.10
2022-10-08T08:36:45.128Z,42.55
2022-10-08T08:39:17.907Z,41.20
2022-10-08T08:42:05.985Z,41.42
2022-10-08T08:44:37.565Z,44.83
2022-10-08T08:47:18.954Z,42.80
2022-10-08T08:49:52.283Z,39.78
2022-10-08T08:52:22.883Z,42.22
2022-10-08T08:54:51.009Z,38.55
2022-10-08T08:57:42.301Z,34.28
2022-10-08T09:00:18.030Z,33.05
2022-10-08T09:03:05.165Z,30.92
2022-10-08T09:05:38.597Z,30.95
2022-10-08T09:08:15.936Z,33.47
2022-10-08T09:10:48.160Z,30.17
2022-10-08T09:13:19.003Z,32.75
2022-10-08T09:15:46.449Z,30.25
2022-10-08T09:18:15.403Z,29.45
2022-10-08T09:20:42.430Z,30.48
2022-10-08T09:23:15.986Z,30.23
2022-10-08T09:25:44.110Z,32.78
2022-10-08T09:28:10.915Z,31.77
2022-10-08T09:30:42.892Z,31.70
2022-10-08T09:33:12.299Z,31.52
2022-10-08T09:35:48.171Z,30.38
2022-10-08T09:38:23.403Z,29.27
2022-10-08T09:41:22.208Z,28.02
2022-10-08T09:44:12.007Z,34.33
2022-10-08T09:46:38.369Z,26.17
2022-10-08T09:49:29.222Z,29.70
2022-10-08T09:51:58.552Z,32.85
2022-10-08T09:54:28.344Z,32.47
2022-10-08T09:57:02.280Z,30.52
2022-10-08T09:59:31.455Z,33.28
2022-10-08T10:01:58.878Z,32.63
2022-10-08T10:04:34.479Z,29.75
2022-10-08T10:07:01.880Z,30.20
2022-10-08T10:09:52.251Z,28.42
2022-10-08T10:12:29.984Z,28.55
2022-10-08T10:15:05.579Z,25.08
2022-10-08T10:17:40.320Z,25.65
2022-10-08T10:20:23.714Z,24.58
2022-10-08T10:22:53.337Z,12.25
2022-10-08T10:25:44.450Z,8.82
2022-10-08T10:28:19.754Z,11.38
2022-10-08T10:30:55.626Z,11.90
2022-10-08T10:33:57.577Z,9.60
2022-10-08T10:36:29.082Z,8.32
2022-10-08T10:39:08.832Z,9.25
2022-10-08T10:41:52.817Z,7.63
2022-10-08T10:44:25.691Z,6.13
2022-10-08T10:46:56.728Z,7.65
2022-10-08T10:49:33.705Z,5.30
2022-10-08T10:52:21.268Z,5.70
2022-10-08T10:54:59.621Z,6.30
2022-10-08T10:57:41.043Z,6.57
2022-10-08T11:00:30.170Z,6.97
2022-10-08T11:03:07.325Z,6.63
2022-10-08T11:05:36.518Z,6.03
2022-10-08T11:08:26.935Z,7.07
2022-10-08T11:11:29.558Z,7.63
2022-10-08T11:16:51.761Z,7.45
2022-10-08T11:19:49.891Z,7.22
2022-10-08T11:22:28.101Z,7.88
2022-10-08T11:25:06.823Z,7.95
2022-10-08T11:27:51.460Z,6.60
2022-10-08T11:30:29.326Z,6.35
2022-10-08T11:32:57.596Z,6.22
2022-10-08T11:35:35.622Z,6.28
2022-10-08T11:38:11.990Z,6.13
2022-10-08T11:40:53.098Z,5.57
2022-10-08T11:43:57.203Z,5.68
2022-10-08T11:46:28.924Z,5.50
2022-10-08T11:48:58.126Z,5.72
2022-10-08T11:51:24.400Z,6.28
2022-10-08T11:54:09.472Z,5.97
2022-10-08T11:56:38.751Z,5.82
2022-10-08T11:59:36.265Z,5.10
2022-10-08T12:02:18.831Z,5.18
2022-10-08T12:04:48.930Z,5.82
2022-10-08T12:07:15.201Z,5.40
2022-10-08T12:10:06.339Z,5.63
2022-10-08T12:12:51.049Z,5.68
2022-10-08T12:15:23.537Z,5.68
2022-10-08T12:18:00.368Z,6.72
2022-10-08T12:20:28.702Z,5.32
2022-10-08T12:23:20.798Z,4.78
2022-10-08T12:25:48.905Z,5.70
2022-10-08T12:28:21.210Z,5.70
2022-10-08T12:30:54.047Z,5.32
2022-10-08T12:33:21.202Z,5.43
2022-10-08T12:35:56.397Z,4.43
2022-10-08T12:38:37.141Z,4.68
2022-10-08T12:41:22.311Z,4.68
2022-10-08T12:44:14.567Z,5.45
2022-10-08T12:46:50.702Z,6.00
2022-10-08T12:49:35.698Z,5.18
2022-10-08T12:52:10.481Z,7.72
2022-10-08T12:54:40.854Z,5.70
2022-10-08T12:57:10.165Z,5.95
2022-10-08T12:59:40.092Z,6.45
2022-10-08T13:02:24.699Z,7.68
2022-10-08T13:04:51.495Z,5.90
2022-10-08T13:07:24.651Z,5.07
2022-10-08T13:10:13.693Z,5.72
2022-10-08T13:12:41.740Z,5.38
2022-10-08T13:15:22.763Z,5.00
2022-10-08T13:17:49.912Z,6.90
2022-10-08T13:20:19.620Z,7.10
2022-10-08T13:22:46.167Z,6.00
2022-10-08T13:25:31.167Z,8.63
2022-10-08T13:28:48.445Z,9.07
